LOT2164 LEBL-EPKK
Flight info
| Callsign | LOT2164 |
|---|---|
| Flight time | 2h 16m |
| Altitude | 36000 |
| Route | AGENA DCT BODEQ DCT LUMAS DCT NIBIK DCT STP DCT RAPED DCT PIGOS DCT EKSID DCT NOSTA DCT NOPMU DCT LAGEN DCT ROBAS DCT NOBMI DCT MALUG/M78F370 DCT LOKVU DCT PADKA |
| Aircraft | B738/M-SDE2E3FGHIRWXY/LB1 |
Departure
| Time | 2026-05-05 08:03 |
|---|---|
| Airport | Josep Tarradellas Barcelona-El Prat Airport (LEBL) |
Arrival
| Time | 2026-05-05 10:19 |
|---|---|
| Airport | Kraków John Paul II International Airport (EPKK) |
| Time | Latitude | Longitude | Altitude | Speed | Heading |
|---|---|---|---|---|---|
| 2026-05-05 07:46 | 41.29024 | 2.08053 | 20 ft | 0 kts | 335° |
| 2026-05-05 07:54 | 41.29019 | 2.08056 | 20 ft | 2 kts | 336° |
| 2026-05-05 07:54 | 41.29001 | 2.08066 | 20 ft | 3 kts | 343° |
| 2026-05-05 07:54 | 41.28981 | 2.08072 | 20 ft | 3 kts | 353° |
| 2026-05-05 07:55 | 41.28962 | 2.08073 | 20 ft | 3 kts | 14° |
| 2026-05-05 07:55 | 41.28946 | 2.08063 | 20 ft | 3 kts | 57° |
| 2026-05-05 07:55 | 41.28939 | 2.08045 | 20 ft | 2 kts | 65° |
| 2026-05-05 07:55 | 41.28936 | 2.08036 | 20 ft | 0 kts | 65° |
| 2026-05-05 07:57 | 41.28952 | 2.08082 | 20 ft | 8 kts | 66° |
| 2026-05-05 07:58 | 41.28930 | 2.08131 | 20 ft | 9 kts | 153° |
| 2026-05-05 07:58 | 41.28844 | 2.08184 | 20 ft | 15 kts | 155° |
| 2026-05-05 07:58 | 41.28748 | 2.08233 | 20 ft | 14 kts | 174° |
| 2026-05-05 07:58 | 41.28709 | 2.08292 | 20 ft | 11 kts | 65° |
| 2026-05-05 07:59 | 41.28754 | 2.08417 | 20 ft | 20 kts | 65° |
| 2026-05-05 07:59 | 41.28823 | 2.08618 | 20 ft | 27 kts | 66° |
| 2026-05-05 07:59 | 41.28899 | 2.08840 | 20 ft | 25 kts | 65° |
| 2026-05-05 07:59 | 41.28968 | 2.09041 | 20 ft | 23 kts | 65° |
| 2026-05-05 08:00 | 41.29034 | 2.09232 | 20 ft | 22 kts | 65° |
| 2026-05-05 08:00 | 41.29096 | 2.09414 | 20 ft | 22 kts | 64° |
| 2026-05-05 08:00 | 41.29159 | 2.09595 | 20 ft | 22 kts | 66° |
| 2026-05-05 08:00 | 41.29225 | 2.09787 | 20 ft | 22 kts | 65° |
| 2026-05-05 08:01 | 41.29281 | 2.09961 | 20 ft | 18 kts | 84° |
| 2026-05-05 08:01 | 41.29248 | 2.10112 | 20 ft | 17 kts | 111° |
| 2026-05-05 08:01 | 41.29249 | 2.10233 | 20 ft | 10 kts | 67° |
| 2026-05-05 08:01 | 41.29240 | 2.10293 | 20 ft | 7 kts | 160° |
| 2026-05-05 08:02 | 41.29210 | 2.10286 | 20 ft | 4 kts | 218° |
| 2026-05-05 08:02 | 41.29176 | 2.10197 | 20 ft | 31 kts | 245° |
| 2026-05-05 08:02 | 41.28988 | 2.09648 | 20 ft | 97 kts | 246° |
| 2026-05-05 08:02 | 41.28622 | 2.08588 | 23 ft | 154 kts | 246° |
| 2026-05-05 08:03 | 41.28100 | 2.07218 | 463 ft | 170 kts | 240° |
| 2026-05-05 08:03 | 41.27269 | 2.06084 | 1220 ft | 178 kts | 212° |
| 2026-05-05 08:03 | 41.26042 | 2.05673 | 1893 ft | 185 kts | 184° |
| 2026-05-05 08:03 | 41.24741 | 2.05658 | 2584 ft | 193 kts | 183° |
| 2026-05-05 08:04 | 41.23314 | 2.05650 | 2935 ft | 216 kts | 181° |
| 2026-05-05 08:04 | 41.21786 | 2.05665 | 3585 ft | 221 kts | 181° |
| 2026-05-05 08:04 | 41.20215 | 2.05649 | 4196 ft | 233 kts | 182° |
| 2026-05-05 08:04 | 41.18579 | 2.05593 | 4862 ft | 240 kts | 184° |
| 2026-05-05 08:05 | 41.16907 | 2.05525 | 5705 ft | 241 kts | 184° |
| 2026-05-05 08:05 | 41.15219 | 2.05456 | 6506 ft | 244 kts | 185° |
| 2026-05-05 08:05 | 41.13510 | 2.05387 | 7268 ft | 247 kts | 185° |
| 2026-05-05 08:05 | 41.11781 | 2.05317 | 8026 ft | 251 kts | 185° |
| 2026-05-05 08:06 | 41.10023 | 2.05247 | 8762 ft | 254 kts | 185° |
| 2026-05-05 08:06 | 41.08244 | 2.05176 | 9507 ft | 256 kts | 185° |
| 2026-05-05 08:06 | 41.06464 | 2.05105 | 10329 ft | 255 kts | 186° |
| 2026-05-05 08:06 | 41.04688 | 2.05035 | 11119 ft | 255 kts | 186° |
| 2026-05-05 08:07 | 41.02916 | 2.04965 | 11893 ft | 255 kts | 186° |
| 2026-05-05 08:07 | 41.01136 | 2.04996 | 12611 ft | 261 kts | 175° |
| 2026-05-05 08:07 | 40.99410 | 2.05904 | 13253 ft | 275 kts | 150° |
| 2026-05-05 08:07 | 40.97968 | 2.07662 | 13775 ft | 292 kts | 136° |
| 2026-05-05 08:08 | 40.96689 | 2.09886 | 14037 ft | 314 kts | 129° |
| 2026-05-05 08:08 | 40.95439 | 2.12353 | 14375 ft | 330 kts | 128° |
| 2026-05-05 08:08 | 40.94137 | 2.14899 | 14943 ft | 336 kts | 129° |
| 2026-05-05 08:08 | 40.92789 | 2.17455 | 15568 ft | 340 kts | 130° |
| 2026-05-05 08:09 | 40.91419 | 2.20020 | 16205 ft | 344 kts | 130° |
| 2026-05-05 08:09 | 40.90026 | 2.22616 | 16810 ft | 348 kts | 130° |
| 2026-05-05 08:09 | 40.88660 | 2.25229 | 17401 ft | 355 kts | 126° |
| 2026-05-05 08:09 | 40.87732 | 2.28309 | 17954 ft | 369 kts | 106° |
| 2026-05-05 08:10 | 40.87576 | 2.31722 | 18525 ft | 378 kts | 87° |
| 2026-05-05 08:10 | 40.88219 | 2.35114 | 19072 ft | 385 kts | 68° |
| 2026-05-05 08:10 | 40.89605 | 2.38131 | 19632 ft | 386 kts | 49° |
| 2026-05-05 08:10 | 40.91484 | 2.40654 | 20210 ft | 386 kts | 41° |
| 2026-05-05 08:11 | 40.93417 | 2.43160 | 20735 ft | 391 kts | 44° |
| 2026-05-05 08:11 | 40.94680 | 2.44940 | 21099 ft | 394 kts | 46° |
| 2026-05-05 08:11 | 40.96473 | 2.47712 | 21611 ft | 399 kts | 49° |
| 2026-05-05 08:11 | 40.98179 | 2.50569 | 22121 ft | 402 kts | 51° |
| 2026-05-05 08:12 | 40.99889 | 2.53520 | 22603 ft | 406 kts | 51° |
| 2026-05-05 08:12 | 41.01614 | 2.56502 | 23108 ft | 409 kts | 51° |
| 2026-05-05 08:12 | 41.03348 | 2.59501 | 23595 ft | 412 kts | 51° |
| 2026-05-05 08:12 | 41.05098 | 2.62527 | 24019 ft | 416 kts | 51° |
| 2026-05-05 08:13 | 41.06864 | 2.65585 | 24479 ft | 420 kts | 51° |
| 2026-05-05 08:13 | 41.08646 | 2.68669 | 24921 ft | 423 kts | 51° |
| 2026-05-05 08:13 | 41.10447 | 2.71787 | 25349 ft | 426 kts | 51° |
| 2026-05-05 08:13 | 41.12253 | 2.74912 | 25793 ft | 428 kts | 51° |
| 2026-05-05 08:14 | 41.14069 | 2.78068 | 26198 ft | 432 kts | 51° |
| 2026-05-05 08:14 | 41.15901 | 2.81243 | 26603 ft | 435 kts | 51° |
| 2026-05-05 08:14 | 41.17743 | 2.84444 | 27005 ft | 437 kts | 51° |
| 2026-05-05 08:14 | 41.19594 | 2.87669 | 27382 ft | 441 kts | 51° |
| 2026-05-05 08:15 | 41.21437 | 2.90883 | 27771 ft | 443 kts | 51° |
| 2026-05-05 08:15 | 41.23334 | 2.94195 | 28128 ft | 446 kts | 51° |
| 2026-05-05 08:15 | 41.25213 | 2.97480 | 28500 ft | 448 kts | 51° |
| 2026-05-05 08:15 | 41.27077 | 3.00741 | 28877 ft | 450 kts | 51° |
| 2026-05-05 08:16 | 41.28976 | 3.04067 | 29213 ft | 453 kts | 51° |
| 2026-05-05 08:16 | 41.30888 | 3.07418 | 29543 ft | 456 kts | 51° |
| 2026-05-05 08:16 | 41.32809 | 3.10789 | 29870 ft | 458 kts | 51° |
| 2026-05-05 08:16 | 41.34751 | 3.14168 | 30187 ft | 460 kts | 51° |
| 2026-05-05 08:17 | 41.36725 | 3.17534 | 30531 ft | 462 kts | 51° |
| 2026-05-05 08:17 | 41.38685 | 3.20933 | 30839 ft | 464 kts | 51° |
| 2026-05-05 08:17 | 41.40645 | 3.24368 | 31117 ft | 467 kts | 51° |
| 2026-05-05 08:17 | 41.42608 | 3.27827 | 31417 ft | 469 kts | 52° |
| 2026-05-05 08:18 | 41.44575 | 3.31304 | 31709 ft | 471 kts | 52° |
| 2026-05-05 08:18 | 41.46549 | 3.34797 | 31992 ft | 473 kts | 52° |
| 2026-05-05 08:18 | 41.48531 | 3.38309 | 32259 ft | 475 kts | 52° |
| 2026-05-05 08:18 | 41.50523 | 3.41840 | 32496 ft | 478 kts | 52° |
| 2026-05-05 08:19 | 41.52446 | 3.45464 | 32750 ft | 480 kts | 57° |
| 2026-05-05 08:19 | 41.54021 | 3.49335 | 32997 ft | 482 kts | 65° |
| 2026-05-05 08:19 | 41.55245 | 3.53506 | 33248 ft | 483 kts | 73° |
| 2026-05-05 08:19 | 41.56130 | 3.57828 | 33491 ft | 483 kts | 78° |
| 2026-05-05 08:20 | 41.56801 | 3.62224 | 33713 ft | 484 kts | 81° |
| 2026-05-05 08:20 | 41.57455 | 3.66641 | 33958 ft | 486 kts | 80° |
| 2026-05-05 08:20 | 41.58149 | 3.71066 | 34184 ft | 488 kts | 80° |
| 2026-05-05 08:20 | 41.58859 | 3.75502 | 34408 ft | 489 kts | 80° |
| 2026-05-05 08:21 | 41.59575 | 3.79949 | 34645 ft | 490 kts | 80° |
| 2026-05-05 08:21 | 41.60297 | 3.84416 | 34847 ft | 492 kts | 80° |
| 2026-05-05 08:21 | 41.61020 | 3.88897 | 35043 ft | 494 kts | 80° |
| 2026-05-05 08:21 | 41.61741 | 3.93383 | 35265 ft | 495 kts | 80° |
| 2026-05-05 08:22 | 41.62461 | 3.97888 | 35459 ft | 496 kts | 80° |
| 2026-05-05 08:22 | 41.63180 | 4.02402 | 35693 ft | 496 kts | 80° |
| 2026-05-05 08:22 | 41.63896 | 4.06911 | 35926 ft | 497 kts | 80° |
| 2026-05-05 08:22 | 41.64615 | 4.11443 | 35926 ft | 498 kts | 80° |
| 2026-05-05 08:23 | 41.66036 | 4.20433 | 35937 ft | 496 kts | 80° |
| 2026-05-05 08:23 | 41.67509 | 4.29405 | 35945 ft | 493 kts | 79° |
| 2026-05-05 08:24 | 41.68955 | 4.38384 | 35948 ft | 494 kts | 80° |
| 2026-05-05 08:24 | 41.70357 | 4.47388 | 35949 ft | 494 kts | 80° |
| 2026-05-05 08:25 | 41.71748 | 4.56395 | 35949 ft | 495 kts | 81° |
| 2026-05-05 08:25 | 41.72630 | 4.60849 | 35934 ft | 497 kts | 70° |
| 2026-05-05 08:25 | 41.74235 | 4.64937 | 35938 ft | 497 kts | 55° |
| 2026-05-05 08:26 | 41.76503 | 4.68414 | 35947 ft | 496 kts | 41° |
| 2026-05-05 08:26 | 41.79209 | 4.71258 | 35955 ft | 494 kts | 32° |
| 2026-05-05 08:26 | 41.85115 | 4.75866 | 35953 ft | 490 kts | 24° |
| 2026-05-05 08:27 | 41.91129 | 4.80188 | 35948 ft | 490 kts | 25° |
| 2026-05-05 08:27 | 41.97057 | 4.84605 | 35942 ft | 491 kts | 26° |
| 2026-05-05 08:28 | 42.03015 | 4.89101 | 35941 ft | 490 kts | 26° |
| 2026-05-05 08:28 | 42.08950 | 4.93558 | 35940 ft | 487 kts | 26° |
| 2026-05-05 08:29 | 42.14857 | 4.98034 | 35939 ft | 488 kts | 27° |
| 2026-05-05 08:30 | 42.23721 | 5.04786 | 35939 ft | 488 kts | 27° |
| 2026-05-05 08:30 | 42.29627 | 5.09300 | 35939 ft | 488 kts | 27° |
| 2026-05-05 08:31 | 42.35527 | 5.13820 | 35938 ft | 487 kts | 27° |
| 2026-05-05 08:31 | 42.41428 | 5.18334 | 35938 ft | 487 kts | 27° |
| 2026-05-05 08:32 | 42.47289 | 5.22828 | 35938 ft | 487 kts | 27° |
| 2026-05-05 08:32 | 42.53179 | 5.27379 | 35937 ft | 487 kts | 27° |
| 2026-05-05 08:33 | 42.59068 | 5.31942 | 35937 ft | 487 kts | 27° |
| 2026-05-05 08:33 | 42.64897 | 5.36654 | 35933 ft | 489 kts | 34° |
| 2026-05-05 08:34 | 42.69774 | 5.43094 | 35937 ft | 491 kts | 52° |
| 2026-05-05 08:34 | 42.73524 | 5.50827 | 35937 ft | 489 kts | 59° |
| 2026-05-05 08:35 | 42.76998 | 5.58784 | 35937 ft | 489 kts | 60° |
| 2026-05-05 08:35 | 42.80517 | 5.66719 | 35937 ft | 489 kts | 59° |
| 2026-05-05 08:36 | 42.84051 | 5.74651 | 35936 ft | 489 kts | 59° |
| 2026-05-05 08:36 | 42.87582 | 5.82492 | 35936 ft | 488 kts | 59° |
| 2026-05-05 08:37 | 42.91144 | 5.90382 | 35936 ft | 489 kts | 59° |
| 2026-05-05 08:37 | 42.94682 | 5.98295 | 35935 ft | 488 kts | 59° |
| 2026-05-05 08:38 | 42.98208 | 6.06219 | 35935 ft | 488 kts | 59° |
| 2026-05-05 08:38 | 43.01726 | 6.14152 | 35935 ft | 488 kts | 59° |
| 2026-05-05 08:39 | 43.05238 | 6.22091 | 35936 ft | 487 kts | 59° |
| 2026-05-05 08:39 | 43.08770 | 6.30006 | 35938 ft | 487 kts | 60° |
| 2026-05-05 08:40 | 43.12231 | 6.37891 | 35942 ft | 486 kts | 60° |
| 2026-05-05 08:40 | 43.15699 | 6.45835 | 35949 ft | 486 kts | 60° |
| 2026-05-05 08:41 | 43.19164 | 6.53788 | 35955 ft | 486 kts | 60° |
| 2026-05-05 08:41 | 43.22674 | 6.61695 | 35957 ft | 485 kts | 57° |
| 2026-05-05 08:42 | 43.26680 | 6.69172 | 35958 ft | 486 kts | 53° |
| 2026-05-05 08:42 | 43.30670 | 6.76648 | 35949 ft | 486 kts | 54° |
| 2026-05-05 08:43 | 43.34623 | 6.84167 | 35953 ft | 485 kts | 54° |
| 2026-05-05 08:43 | 43.38570 | 6.91691 | 35958 ft | 485 kts | 54° |
| 2026-05-05 08:44 | 43.42508 | 6.99220 | 35962 ft | 484 kts | 54° |
| 2026-05-05 08:44 | 43.46473 | 7.06718 | 35963 ft | 485 kts | 54° |
| 2026-05-05 08:45 | 43.50408 | 7.14257 | 35963 ft | 485 kts | 54° |
| 2026-05-05 08:45 | 43.54298 | 7.21765 | 35964 ft | 484 kts | 54° |
| 2026-05-05 08:46 | 43.58199 | 7.29314 | 35964 ft | 483 kts | 54° |
| 2026-05-05 08:46 | 43.62100 | 7.36865 | 35965 ft | 483 kts | 54° |
| 2026-05-05 08:47 | 43.66009 | 7.44399 | 35965 ft | 482 kts | 54° |
| 2026-05-05 08:47 | 43.69897 | 7.51968 | 35965 ft | 482 kts | 54° |
| 2026-05-05 08:48 | 43.73770 | 7.59530 | 35965 ft | 481 kts | 54° |
| 2026-05-05 08:48 | 43.77633 | 7.67072 | 35968 ft | 480 kts | 54° |
| 2026-05-05 08:49 | 43.81688 | 7.74340 | 35968 ft | 479 kts | 47° |
| 2026-05-05 08:49 | 43.86572 | 7.80588 | 35968 ft | 478 kts | 36° |
| 2026-05-05 08:50 | 43.91859 | 7.86168 | 35967 ft | 477 kts | 36° |
| 2026-05-05 08:50 | 43.96992 | 7.91994 | 35970 ft | 477 kts | 41° |
| 2026-05-05 08:51 | 44.01740 | 7.98448 | 35975 ft | 478 kts | 44° |
| 2026-05-05 08:51 | 44.06459 | 8.04939 | 35968 ft | 478 kts | 43° |
| 2026-05-05 08:52 | 44.11212 | 8.11411 | 35965 ft | 478 kts | 43° |
| 2026-05-05 08:52 | 44.15973 | 8.17886 | 35971 ft | 478 kts | 43° |
| 2026-05-05 08:53 | 44.20740 | 8.24250 | 35967 ft | 478 kts | 43° |
| 2026-05-05 08:53 | 44.25497 | 8.30716 | 35968 ft | 478 kts | 43° |
| 2026-05-05 08:54 | 44.30244 | 8.37214 | 35968 ft | 478 kts | 43° |
| 2026-05-05 08:54 | 44.34987 | 8.43721 | 35968 ft | 478 kts | 43° |
| 2026-05-05 08:55 | 44.39731 | 8.50238 | 35967 ft | 478 kts | 44° |
| 2026-05-05 08:55 | 44.44265 | 8.56975 | 35967 ft | 478 kts | 47° |
| 2026-05-05 08:56 | 44.48748 | 8.63851 | 35966 ft | 478 kts | 47° |
| 2026-05-05 08:56 | 44.53161 | 8.70586 | 35965 ft | 478 kts | 47° |
| 2026-05-05 08:57 | 44.57667 | 8.77459 | 35965 ft | 478 kts | 47° |
| 2026-05-05 08:57 | 44.62162 | 8.84325 | 35965 ft | 478 kts | 47° |
| 2026-05-05 08:58 | 44.66704 | 8.91168 | 35966 ft | 478 kts | 46° |
| 2026-05-05 08:58 | 44.71219 | 8.98023 | 35967 ft | 478 kts | 46° |
| 2026-05-05 08:59 | 44.75725 | 9.04910 | 35967 ft | 478 kts | 47° |
| 2026-05-05 08:59 | 44.80192 | 9.11761 | 35968 ft | 478 kts | 47° |
| 2026-05-05 09:00 | 44.84684 | 9.18670 | 35968 ft | 477 kts | 47° |
| 2026-05-05 09:00 | 44.89157 | 9.25570 | 35971 ft | 477 kts | 47° |
| 2026-05-05 09:01 | 44.93631 | 9.32487 | 35972 ft | 477 kts | 47° |
| 2026-05-05 09:01 | 44.98104 | 9.39410 | 35971 ft | 477 kts | 46° |
| 2026-05-05 09:02 | 45.01834 | 9.45146 | 35971 ft | 477 kts | 47° |
| 2026-05-05 09:02 | 45.06280 | 9.52078 | 35971 ft | 476 kts | 47° |
| 2026-05-05 09:03 | 45.10710 | 9.59019 | 35972 ft | 475 kts | 47° |
| 2026-05-05 09:03 | 45.15136 | 9.65970 | 35973 ft | 475 kts | 47° |
| 2026-05-05 09:04 | 45.19557 | 9.72917 | 35975 ft | 474 kts | 47° |
| 2026-05-05 09:04 | 45.23829 | 9.80029 | 35981 ft | 473 kts | 51° |
| 2026-05-05 09:05 | 45.27995 | 9.87252 | 35985 ft | 472 kts | 50° |
| 2026-05-05 09:05 | 45.32153 | 9.94400 | 35988 ft | 471 kts | 50° |
| 2026-05-05 09:06 | 45.36333 | 10.01579 | 35991 ft | 471 kts | 50° |
| 2026-05-05 09:06 | 45.40504 | 10.08748 | 35992 ft | 470 kts | 50° |
| 2026-05-05 09:07 | 45.44705 | 10.15870 | 35994 ft | 469 kts | 49° |
| 2026-05-05 09:07 | 45.48907 | 10.22999 | 35994 ft | 469 kts | 50° |
| 2026-05-05 09:08 | 45.53057 | 10.30172 | 35994 ft | 469 kts | 50° |
| 2026-05-05 09:08 | 45.57198 | 10.37364 | 35995 ft | 469 kts | 50° |
| 2026-05-05 09:09 | 45.61340 | 10.44573 | 35997 ft | 469 kts | 50° |
| 2026-05-05 09:09 | 45.65476 | 10.51792 | 35999 ft | 469 kts | 51° |
| 2026-05-05 09:10 | 45.69392 | 10.59239 | 36000 ft | 469 kts | 53° |
| 2026-05-05 09:10 | 45.73260 | 10.66763 | 36006 ft | 469 kts | 53° |
| 2026-05-05 09:11 | 45.77143 | 10.74290 | 36010 ft | 469 kts | 53° |
| 2026-05-05 09:11 | 45.81026 | 10.81818 | 36016 ft | 469 kts | 53° |
| 2026-05-05 09:12 | 45.84901 | 10.89345 | 36024 ft | 469 kts | 53° |
| 2026-05-05 09:12 | 45.88798 | 10.96779 | 36009 ft | 469 kts | 52° |
| 2026-05-05 09:13 | 45.92701 | 11.04286 | 36001 ft | 469 kts | 53° |
| 2026-05-05 09:13 | 45.96587 | 11.11818 | 35999 ft | 469 kts | 53° |
| 2026-05-05 09:14 | 46.00470 | 11.19376 | 35999 ft | 469 kts | 53° |
| 2026-05-05 09:14 | 46.04325 | 11.26909 | 35999 ft | 466 kts | 53° |
| 2026-05-05 09:15 | 46.08163 | 11.34429 | 36005 ft | 466 kts | 53° |
| 2026-05-05 09:15 | 46.11976 | 11.41922 | 36027 ft | 466 kts | 53° |
| 2026-05-05 09:16 | 46.15833 | 11.49521 | 36041 ft | 466 kts | 53° |
| 2026-05-05 09:16 | 46.19629 | 11.57021 | 36052 ft | 466 kts | 53° |
| 2026-05-05 09:17 | 46.23449 | 11.64587 | 36064 ft | 466 kts | 53° |
| 2026-05-05 09:17 | 46.27277 | 11.72192 | 36086 ft | 467 kts | 53° |
| 2026-05-05 09:17 | 46.29192 | 11.76003 | 36217 ft | 469 kts | 53° |
| 2026-05-05 09:18 | 46.31107 | 11.79820 | 36486 ft | 468 kts | 53° |
| 2026-05-05 09:18 | 46.33014 | 11.83628 | 36784 ft | 467 kts | 53° |
| 2026-05-05 09:18 | 46.34919 | 11.87433 | 37027 ft | 467 kts | 53° |
| 2026-05-05 09:19 | 46.38741 | 11.95088 | 37070 ft | 469 kts | 54° |
| 2026-05-05 09:19 | 46.42555 | 12.02748 | 37064 ft | 467 kts | 54° |
| 2026-05-05 09:20 | 46.46345 | 12.10381 | 37058 ft | 467 kts | 54° |
| 2026-05-05 09:20 | 46.50139 | 12.18042 | 37051 ft | 467 kts | 54° |
| 2026-05-05 09:21 | 46.53946 | 12.25678 | 37044 ft | 467 kts | 53° |
| 2026-05-05 09:21 | 46.57713 | 12.33307 | 37036 ft | 467 kts | 54° |
| 2026-05-05 09:22 | 46.61476 | 12.40997 | 37028 ft | 467 kts | 54° |
| 2026-05-05 09:22 | 46.65239 | 12.48715 | 37020 ft | 467 kts | 54° |
| 2026-05-05 09:23 | 46.68997 | 12.56420 | 37012 ft | 467 kts | 53° |
| 2026-05-05 09:23 | 46.73263 | 12.63526 | 37001 ft | 465 kts | 44° |
| 2026-05-05 09:24 | 46.77920 | 12.70095 | 36989 ft | 465 kts | 43° |
| 2026-05-05 09:24 | 46.82568 | 12.76656 | 36980 ft | 465 kts | 43° |
| 2026-05-05 09:25 | 46.87187 | 12.83213 | 36972 ft | 465 kts | 43° |
| 2026-05-05 09:25 | 46.91820 | 12.89816 | 36963 ft | 465 kts | 43° |
| 2026-05-05 09:26 | 46.96469 | 12.96429 | 36956 ft | 466 kts | 43° |
| 2026-05-05 09:26 | 47.01142 | 13.03004 | 36947 ft | 466 kts | 43° |
| 2026-05-05 09:27 | 47.05808 | 13.09635 | 36934 ft | 466 kts | 43° |
| 2026-05-05 09:27 | 47.10462 | 13.16285 | 36939 ft | 468 kts | 43° |
| 2026-05-05 09:28 | 47.15119 | 13.22968 | 36932 ft | 468 kts | 44° |
| 2026-05-05 09:28 | 47.19734 | 13.29608 | 36924 ft | 467 kts | 44° |
| 2026-05-05 09:29 | 47.24369 | 13.36298 | 36915 ft | 467 kts | 44° |
| 2026-05-05 09:29 | 47.28995 | 13.42992 | 36908 ft | 466 kts | 44° |
| 2026-05-05 09:30 | 47.33617 | 13.49697 | 36902 ft | 466 kts | 44° |
| 2026-05-05 09:30 | 47.38241 | 13.56424 | 36897 ft | 466 kts | 44° |
| 2026-05-05 09:31 | 47.42857 | 13.63157 | 36893 ft | 466 kts | 44° |
| 2026-05-05 09:31 | 47.47468 | 13.69899 | 36885 ft | 466 kts | 44° |
| 2026-05-05 09:32 | 47.52073 | 13.76651 | 36881 ft | 466 kts | 44° |
| 2026-05-05 09:32 | 47.56674 | 13.83414 | 36874 ft | 466 kts | 44° |
| 2026-05-05 09:33 | 47.61237 | 13.90139 | 36871 ft | 466 kts | 44° |
| 2026-05-05 09:33 | 47.65825 | 13.96919 | 36870 ft | 466 kts | 44° |
| 2026-05-05 09:34 | 47.70415 | 14.03718 | 36869 ft | 465 kts | 44° |
| 2026-05-05 09:34 | 47.74997 | 14.10525 | 36867 ft | 466 kts | 44° |
| 2026-05-05 09:35 | 47.79572 | 14.17339 | 36865 ft | 465 kts | 44° |
| 2026-05-05 09:35 | 47.86400 | 14.27541 | 36857 ft | 465 kts | 44° |
| 2026-05-05 09:36 | 47.90965 | 14.34386 | 36858 ft | 465 kts | 44° |
| 2026-05-05 09:36 | 47.95527 | 14.41244 | 36860 ft | 465 kts | 44° |
| 2026-05-05 09:37 | 48.00079 | 14.48105 | 36858 ft | 464 kts | 44° |
| 2026-05-05 09:37 | 48.04629 | 14.54980 | 36858 ft | 466 kts | 44° |
| 2026-05-05 09:38 | 48.09178 | 14.61874 | 36858 ft | 466 kts | 44° |
| 2026-05-05 09:38 | 48.13718 | 14.68772 | 36858 ft | 464 kts | 44° |
| 2026-05-05 09:39 | 48.18253 | 14.75681 | 36860 ft | 465 kts | 44° |
| 2026-05-05 09:39 | 48.22749 | 14.82548 | 36859 ft | 465 kts | 44° |
| 2026-05-05 09:40 | 48.27283 | 14.89493 | 36855 ft | 465 kts | 44° |
| 2026-05-05 09:40 | 48.31802 | 14.96433 | 36856 ft | 465 kts | 44° |
| 2026-05-05 09:41 | 48.36315 | 15.03382 | 36858 ft | 464 kts | 44° |
| 2026-05-05 09:41 | 48.40821 | 15.10341 | 36860 ft | 464 kts | 45° |
| 2026-05-05 09:42 | 48.45323 | 15.17311 | 36852 ft | 464 kts | 45° |
| 2026-05-05 09:42 | 48.49817 | 15.24286 | 36843 ft | 464 kts | 45° |
| 2026-05-05 09:43 | 48.54283 | 15.31240 | 36845 ft | 464 kts | 45° |
| 2026-05-05 09:43 | 48.58772 | 15.38246 | 36848 ft | 463 kts | 45° |
| 2026-05-05 09:44 | 48.63248 | 15.45251 | 36851 ft | 463 kts | 45° |
| 2026-05-05 09:44 | 48.67742 | 15.52238 | 36854 ft | 463 kts | 45° |
| 2026-05-05 09:45 | 48.72214 | 15.59262 | 36857 ft | 463 kts | 45° |
| 2026-05-05 09:45 | 48.76667 | 15.66315 | 36860 ft | 464 kts | 45° |
| 2026-05-05 09:46 | 48.81125 | 15.73398 | 36863 ft | 464 kts | 45° |
| 2026-05-05 09:46 | 48.85590 | 15.80499 | 36865 ft | 464 kts | 45° |
| 2026-05-05 09:47 | 48.89609 | 15.88162 | 36867 ft | 465 kts | 54° |
| 2026-05-05 09:47 | 48.93251 | 15.96290 | 36870 ft | 464 kts | 55° |
| 2026-05-05 09:48 | 48.96855 | 16.04383 | 36872 ft | 464 kts | 55° |
| 2026-05-05 09:48 | 48.99880 | 16.11184 | 36873 ft | 463 kts | 55° |
| 2026-05-05 09:49 | 49.03495 | 16.19329 | 36875 ft | 464 kts | 55° |
| 2026-05-05 09:50 | 49.14591 | 16.44109 | 36876 ft | 464 kts | 55° |
| 2026-05-05 09:51 | 49.18212 | 16.52277 | 36876 ft | 465 kts | 55° |
| 2026-05-05 09:51 | 49.21828 | 16.60474 | 36876 ft | 465 kts | 55° |
| 2026-05-05 09:52 | 49.25436 | 16.68684 | 36875 ft | 464 kts | 55° |
| 2026-05-05 09:52 | 49.29030 | 16.76888 | 36875 ft | 464 kts | 55° |
| 2026-05-05 09:53 | 49.32624 | 16.85119 | 36875 ft | 464 kts | 56° |
| 2026-05-05 09:53 | 49.36203 | 16.93344 | 36874 ft | 463 kts | 56° |
| 2026-05-05 09:54 | 49.39778 | 17.01583 | 36874 ft | 463 kts | 56° |
| 2026-05-05 09:54 | 49.43320 | 17.09772 | 36874 ft | 463 kts | 56° |
| 2026-05-05 09:55 | 49.46879 | 17.18026 | 36874 ft | 463 kts | 56° |
| 2026-05-05 09:55 | 49.50435 | 17.26299 | 36874 ft | 463 kts | 56° |
| 2026-05-05 09:56 | 49.53982 | 17.34577 | 36860 ft | 464 kts | 56° |
| 2026-05-05 09:58 | 49.66571 | 17.64166 | 32722 ft | 466 kts | 56° |
| 2026-05-05 09:58 | 49.68323 | 17.68310 | 32039 ft | 467 kts | 57° |
| 2026-05-05 09:58 | 49.70114 | 17.72555 | 31468 ft | 464 kts | 57° |
| 2026-05-05 09:58 | 49.71848 | 17.76669 | 30962 ft | 461 kts | 57° |
| 2026-05-05 09:59 | 49.73586 | 17.80800 | 30461 ft | 457 kts | 57° |
| 2026-05-05 09:59 | 49.75312 | 17.84908 | 29965 ft | 453 kts | 57° |
| 2026-05-05 09:59 | 49.77042 | 17.88972 | 29480 ft | 449 kts | 56° |
| 2026-05-05 09:59 | 49.78748 | 17.92990 | 29000 ft | 446 kts | 57° |
| 2026-05-05 10:00 | 49.80432 | 17.97005 | 28522 ft | 443 kts | 57° |
| 2026-05-05 10:00 | 49.81925 | 18.01125 | 28221 ft | 434 kts | 65° |
| 2026-05-05 10:00 | 49.83024 | 18.05441 | 27961 ft | 430 kts | 73° |
| 2026-05-05 10:00 | 49.83771 | 18.09935 | 27361 ft | 431 kts | 79° |
| 2026-05-05 10:01 | 49.84315 | 18.14494 | 26774 ft | 431 kts | 81° |
| 2026-05-05 10:01 | 49.84805 | 18.19054 | 26304 ft | 428 kts | 82° |
| 2026-05-05 10:01 | 49.85270 | 18.23579 | 25843 ft | 425 kts | 82° |
| 2026-05-05 10:01 | 49.85730 | 18.28097 | 25370 ft | 422 kts | 82° |
| 2026-05-05 10:02 | 49.86183 | 18.32577 | 24929 ft | 418 kts | 82° |
| 2026-05-05 10:02 | 49.86630 | 18.37014 | 24461 ft | 416 kts | 82° |
| 2026-05-05 10:02 | 49.87073 | 18.41425 | 23997 ft | 413 kts | 82° |
| 2026-05-05 10:02 | 49.87512 | 18.45821 | 23539 ft | 411 kts | 82° |
| 2026-05-05 10:03 | 49.87945 | 18.50179 | 23084 ft | 408 kts | 82° |
| 2026-05-05 10:03 | 49.88374 | 18.54508 | 22621 ft | 406 kts | 82° |
| 2026-05-05 10:03 | 49.88800 | 18.58825 | 22181 ft | 403 kts | 82° |
| 2026-05-05 10:03 | 49.89221 | 18.63098 | 21723 ft | 400 kts | 82° |
| 2026-05-05 10:04 | 49.89670 | 18.67345 | 21276 ft | 398 kts | 82° |
| 2026-05-05 10:04 | 49.90118 | 18.71521 | 20845 ft | 395 kts | 82° |
| 2026-05-05 10:04 | 49.90558 | 18.75723 | 20385 ft | 393 kts | 82° |
| 2026-05-05 10:04 | 49.90984 | 18.79890 | 19953 ft | 390 kts | 82° |
| 2026-05-05 10:05 | 49.91403 | 18.84047 | 19506 ft | 388 kts | 83° |
| 2026-05-05 10:05 | 49.91815 | 18.88166 | 19061 ft | 386 kts | 83° |
| 2026-05-05 10:05 | 49.92222 | 18.92278 | 18641 ft | 383 kts | 83° |
| 2026-05-05 10:05 | 49.92488 | 18.94985 | 18340 ft | 382 kts | 83° |
| 2026-05-05 10:06 | 49.92887 | 18.99057 | 17900 ft | 380 kts | 83° |
| 2026-05-05 10:06 | 49.93282 | 19.03105 | 17479 ft | 378 kts | 83° |
| 2026-05-05 10:06 | 49.93673 | 19.07134 | 17055 ft | 376 kts | 83° |
| 2026-05-05 10:06 | 49.94184 | 19.12428 | 16481 ft | 373 kts | 83° |
| 2026-05-05 10:07 | 49.94443 | 19.15113 | 16204 ft | 372 kts | 83° |
| 2026-05-05 10:07 | 49.94822 | 19.19071 | 15801 ft | 369 kts | 83° |
| 2026-05-05 10:07 | 49.95199 | 19.23010 | 15385 ft | 367 kts | 84° |
| 2026-05-05 10:07 | 49.95571 | 19.26920 | 14956 ft | 366 kts | 84° |
| 2026-05-05 10:08 | 49.95941 | 19.30820 | 14560 ft | 364 kts | 84° |
| 2026-05-05 10:08 | 49.96307 | 19.34698 | 14161 ft | 362 kts | 84° |
| 2026-05-05 10:08 | 49.96671 | 19.38560 | 13745 ft | 360 kts | 84° |
| 2026-05-05 10:08 | 49.97031 | 19.42392 | 13329 ft | 358 kts | 84° |
| 2026-05-05 10:09 | 49.97388 | 19.46212 | 12934 ft | 356 kts | 84° |
| 2026-05-05 10:09 | 49.97740 | 19.49989 | 12737 ft | 348 kts | 84° |
| 2026-05-05 10:09 | 49.98080 | 19.53641 | 12663 ft | 336 kts | 84° |
| 2026-05-05 10:09 | 49.98408 | 19.57180 | 12578 ft | 326 kts | 85° |
| 2026-05-05 10:10 | 49.98727 | 19.60641 | 12291 ft | 323 kts | 85° |
| 2026-05-05 10:10 | 49.99065 | 19.64111 | 11829 ft | 326 kts | 84° |
| 2026-05-05 10:10 | 49.99408 | 19.67588 | 11324 ft | 322 kts | 84° |
| 2026-05-05 10:10 | 49.99730 | 19.70989 | 10824 ft | 312 kts | 85° |
| 2026-05-05 10:11 | 50.00028 | 19.74231 | 10370 ft | 302 kts | 85° |
| 2026-05-05 10:11 | 50.00316 | 19.77420 | 9916 ft | 294 kts | 85° |
| 2026-05-05 10:11 | 50.00595 | 19.80542 | 9464 ft | 289 kts | 85° |
| 2026-05-05 10:11 | 50.00868 | 19.83627 | 9015 ft | 287 kts | 85° |
| 2026-05-05 10:12 | 50.01139 | 19.86691 | 8563 ft | 284 kts | 85° |
| 2026-05-05 10:12 | 50.01406 | 19.89720 | 8114 ft | 281 kts | 85° |
| 2026-05-05 10:12 | 50.01674 | 19.92762 | 7656 ft | 279 kts | 85° |
| 2026-05-05 10:12 | 50.01932 | 19.95696 | 7233 ft | 276 kts | 85° |
| 2026-05-05 10:13 | 50.02192 | 19.98662 | 6831 ft | 273 kts | 84° |
| 2026-05-05 10:13 | 50.02445 | 20.01541 | 6394 ft | 272 kts | 84° |
| 2026-05-05 10:13 | 50.02702 | 20.04455 | 5955 ft | 271 kts | 84° |
| 2026-05-05 10:13 | 50.03022 | 20.07308 | 5628 ft | 264 kts | 76° |
| 2026-05-05 10:14 | 50.03957 | 20.09621 | 5386 ft | 248 kts | 45° |
| 2026-05-05 10:14 | 50.05429 | 20.10898 | 5148 ft | 242 kts | 14° |
| 2026-05-05 10:14 | 50.07086 | 20.10949 | 4824 ft | 237 kts | 352° |
| 2026-05-05 10:14 | 50.08694 | 20.10460 | 4503 ft | 233 kts | 347° |
| 2026-05-05 10:15 | 50.10148 | 20.09519 | 4278 ft | 222 kts | 320° |
| 2026-05-05 10:15 | 50.10937 | 20.07612 | 4203 ft | 205 kts | 288° |
| 2026-05-05 10:15 | 50.11137 | 20.05453 | 4002 ft | 200 kts | 269° |
| 2026-05-05 10:15 | 50.11038 | 20.03305 | 3740 ft | 198 kts | 263° |
| 2026-05-05 10:16 | 50.10868 | 20.01185 | 3476 ft | 196 kts | 259° |
| 2026-05-05 10:16 | 50.10627 | 19.99106 | 3218 ft | 194 kts | 257° |
| 2026-05-05 10:16 | 50.10351 | 19.97049 | 2960 ft | 193 kts | 256° |
| 2026-05-05 10:16 | 50.10074 | 19.95035 | 2702 ft | 188 kts | 256° |
| 2026-05-05 10:17 | 50.09805 | 19.93087 | 2458 ft | 181 kts | 256° |
| 2026-05-05 10:17 | 50.09545 | 19.91219 | 2233 ft | 171 kts | 256° |
| 2026-05-05 10:17 | 50.09299 | 19.89449 | 2012 ft | 164 kts | 256° |
| 2026-05-05 10:17 | 50.09060 | 19.87731 | 1788 ft | 160 kts | 256° |
| 2026-05-05 10:18 | 50.08824 | 19.86053 | 1566 ft | 157 kts | 255° |
| 2026-05-05 10:18 | 50.08590 | 19.84398 | 1342 ft | 156 kts | 256° |
| 2026-05-05 10:18 | 50.08362 | 19.82766 | 1134 ft | 154 kts | 255° |
| 2026-05-05 10:18 | 50.08143 | 19.81152 | 944 ft | 151 kts | 256° |
| 2026-05-05 10:19 | 50.07922 | 19.79571 | 801 ft | 145 kts | 255° |
| 2026-05-05 10:19 | 50.07744 | 19.78289 | 799 ft | 90 kts | 258° |
| 2026-05-05 10:19 | 50.07634 | 19.77505 | 799 ft | 69 kts | 257° |
| 2026-05-05 10:19 | 50.07555 | 19.76942 | 799 ft | 25 kts | 258° |
| 2026-05-05 10:20 | 50.07518 | 19.76840 | 799 ft | 12 kts | 201° |
| 2026-05-05 10:21 | 50.07422 | 19.77804 | 799 ft | 21 kts | 78° |
| 2026-05-05 10:22 | 50.07452 | 19.78018 | 799 ft | 20 kts | 78° |
| 2026-05-05 10:22 | 50.07481 | 19.78224 | 799 ft | 19 kts | 78° |
| 2026-05-05 10:22 | 50.07510 | 19.78435 | 799 ft | 22 kts | 78° |
| 2026-05-05 10:22 | 50.07544 | 19.78685 | 799 ft | 23 kts | 78° |
| 2026-05-05 10:23 | 50.07578 | 19.78924 | 799 ft | 22 kts | 78° |
| 2026-05-05 10:23 | 50.07610 | 19.79152 | 799 ft | 21 kts | 78° |
| 2026-05-05 10:23 | 50.07638 | 19.79359 | 799 ft | 18 kts | 77° |
| 2026-05-05 10:23 | 50.07664 | 19.79541 | 799 ft | 17 kts | 77° |
| 2026-05-05 10:24 | 50.07688 | 19.79713 | 799 ft | 16 kts | 78° |
| 2026-05-05 10:24 | 50.07697 | 19.79843 | 799 ft | 9 kts | 123° |
| 2026-05-05 10:24 | 50.07683 | 19.79864 | 799 ft | 9 kts | 146° |